sensor_id;sensor_type;location;lat;lon;timestamp;P1;durP1;ratioP1;P2;durP2;ratioP2
1000;SDS011;489;47.806;12.858;2022-07-29T00:01:21;2.40;;;2.20;;
1000;SDS011;489;47.806;12.858;2022-07-29T00:03:23;2.80;;;2.60;;
1000;SDS011;489;47.806;12.858;2022-07-29T00:05:25;2.40;;;2.30;;
1000;SDS011;489;47.806;12.858;2022-07-29T00:07:27;3.03;;;2.73;;
1000;SDS011;489;47.806;12.858;2022-07-29T00:09:28;2.67;;;2.47;;
1000;SDS011;489;47.806;12.858;2022-07-29T00:11:30;2.97;;;2.77;;
1000;SDS011;489;47.806;12.858;2022-07-29T00:13:32;3.47;;;2.53;;
1000;SDS011;489;47.806;12.858;2022-07-29T00:15:35;2.67;;;2.47;;
1000;SDS011;489;47.806;12.858;2022-07-29T00:17:37;2.80;;;2.60;;
1000;SDS011;489;47.806;12.858;2022-07-29T00:19:39;2.97;;;2.70;;
1000;SDS011;489;47.806;12.858;2022-07-29T00:21:41;2.73;;;2.53;;
1000;SDS011;489;47.806;12.858;2022-07-29T00:23:42;2.80;;;2.60;;
1000;SDS011;489;47.806;12.858;2022-07-29T00:25:44;2.30;;;2.20;;
1000;SDS011;489;47.806;12.858;2022-07-29T00:27:46;3.27;;;3.00;;
1000;SDS011;489;47.806;12.858;2022-07-29T00:29:48;3.13;;;2.50;;
1000;SDS011;489;47.806;12.858;2022-07-29T00:31:51;2.67;;;2.47;;
1000;SDS011;489;47.806;12.858;2022-07-29T00:33:53;2.50;;;2.30;;
1000;SDS011;489;47.806;12.858;2022-07-29T00:35:55;2.60;;;2.40;;
1000;SDS011;489;47.806;12.858;2022-07-29T00:37:55;2.67;;;2.53;;
1000;SDS011;489;47.806;12.858;2022-07-29T00:39:57;2.70;;;2.50;;
1000;SDS011;489;47.806;12.858;2022-07-29T00:42:01;2.80;;;2.60;;
1000;SDS011;489;47.806;12.858;2022-07-29T00:44:03;3.50;;;2.67;;
1000;SDS011;489;47.806;12.858;2022-07-29T00:46:05;3.30;;;3.00;;
1000;SDS011;489;47.806;12.858;2022-07-29T00:48:09;2.87;;;2.63;;
1000;SDS011;489;47.806;12.858;2022-07-29T00:50:11;3.50;;;3.20;;
1000;SDS011;489;47.806;12.858;2022-07-29T00:52:13;3.17;;;2.97;;
1000;SDS011;489;47.806;12.858;2022-07-29T00:54:15;2.63;;;2.43;;
1000;SDS011;489;47.806;12.858;2022-07-29T00:56:17;2.83;;;2.63;;
1000;SDS011;489;47.806;12.858;2022-07-29T00:58:19;3.10;;;2.90;;
1000;SDS011;489;47.806;12.858;2022-07-29T01:00:24;3.10;;;2.90;;
1000;SDS011;489;47.806;12.858;2022-07-29T01:02:27;3.30;;;3.10;;
1000;SDS011;489;47.806;12.858;2022-07-29T01:04:30;3.30;;;3.10;;
1000;SDS011;489;47.806;12.858;2022-07-29T01:06:32;3.57;;;3.27;;
1000;SDS011;489;47.806;12.858;2022-07-29T01:08:35;3.07;;;2.87;;
1000;SDS011;489;47.806;12.858;2022-07-29T01:10:37;3.30;;;3.00;;
1000;SDS011;489;47.806;12.858;2022-07-29T01:12:40;4.23;;;3.00;;
1000;SDS011;489;47.806;12.858;2022-07-29T01:14:42;3.10;;;2.90;;
1000;SDS011;489;47.806;12.858;2022-07-29T01:16:46;2.93;;;2.67;;
1000;SDS011;489;47.806;12.858;2022-07-29T01:18:51;3.17;;;2.87;;
1000;SDS011;489;47.806;12.858;2022-07-29T01:23:39;3.37;;;3.17;;
1000;SDS011;489;47.806;12.858;2022-07-29T01:28:37;3.17;;;2.97;;
1000;SDS011;489;47.806;12.858;2022-07-29T01:30:41;3.70;;;3.40;;
1000;SDS011;489;47.806;12.858;2022-07-29T01:32:44;3.40;;;3.20;;
1000;SDS011;489;47.806;12.858;2022-07-29T01:34:50;3.57;;;3.37;;
1000;SDS011;489;47.806;12.858;2022-07-29T01:36:55;3.27;;;3.07;;
1000;SDS011;489;47.806;12.858;2022-07-29T01:39:06;3.27;;;3.07;;
1000;SDS011;489;47.806;12.858;2022-07-29T01:41:10;3.27;;;3.00;;
1000;SDS011;489;47.806;12.858;2022-07-29T01:43:16;3.97;;;3.70;;
1000;SDS011;489;47.806;12.858;2022-07-29T01:45:23;3.07;;;2.87;;
1000;SDS011;489;47.806;12.858;2022-07-29T01:47:29;3.40;;;3.10;;
1000;SDS011;489;47.806;12.858;2022-07-29T01:49:35;3.77;;;3.27;;
1000;SDS011;489;47.806;12.858;2022-07-29T01:51:40;2.97;;;2.77;;
1000;SDS011;489;47.806;12.858;2022-07-29T01:53:46;2.20;;;1.90;;
1000;SDS011;489;47.806;12.858;2022-07-29T01:55:52;2.33;;;2.20;;
1000;SDS011;489;47.806;12.858;2022-07-29T01:57:54;1.80;;;1.70;;
1000;SDS011;489;47.806;12.858;2022-07-29T01:59:58;2.03;;;1.93;;
1000;SDS011;489;47.806;12.858;2022-07-29T02:02:02;2.30;;;2.10;;
1000;SDS011;489;47.806;12.858;2022-07-29T02:04:06;1.87;;;1.77;;
1000;SDS011;489;47.806;12.858;2022-07-29T02:06:09;3.30;;;3.10;;
1000;SDS011;489;47.806;12.858;2022-07-29T02:08:12;3.23;;;3.03;;
1000;SDS011;489;47.806;12.858;2022-07-29T02:10:14;3.03;;;2.73;;
1000;SDS011;489;47.806;12.858;2022-07-29T02:12:18;3.70;;;3.10;;
1000;SDS011;489;47.806;12.858;2022-07-29T02:14:21;2.70;;;2.50;;
1000;SDS011;489;47.806;12.858;2022-07-29T02:16:24;2.80;;;2.60;;
1000;SDS011;489;47.806;12.858;2022-07-29T02:18:29;2.57;;;2.37;;
1000;SDS011;489;47.806;12.858;2022-07-29T02:20:32;3.10;;;2.80;;
1000;SDS011;489;47.806;12.858;2022-07-29T02:22:35;2.90;;;2.70;;
1000;SDS011;489;47.806;12.858;2022-07-29T02:24:39;4.00;;;3.70;;
1000;SDS011;489;47.806;12.858;2022-07-29T02:26:41;3.30;;;3.10;;
1000;SDS011;489;47.806;12.858;2022-07-29T02:28:44;2.90;;;2.70;;
1000;SDS011;489;47.806;12.858;2022-07-29T02:30:47;3.40;;;3.20;;
1000;SDS011;489;47.806;12.858;2022-07-29T02:32:50;4.70;;;4.30;;
1000;SDS011;489;47.806;12.858;2022-07-29T02:34:54;3.37;;;3.13;;
1000;SDS011;489;47.806;12.858;2022-07-29T02:36:57;4.00;;;3.70;;
1000;SDS011;489;47.806;12.858;2022-07-29T02:39:00;3.80;;;3.50;;
1000;SDS011;489;47.806;12.858;2022-07-29T02:41:05;3.27;;;3.07;;
1000;SDS011;489;47.806;12.858;2022-07-29T02:43:11;3.90;;;3.60;;
1000;SDS011;489;47.806;12.858;2022-07-29T02:45:14;3.93;;;3.63;;
1000;SDS011;489;47.806;12.858;2022-07-29T02:47:16;3.20;;;3.00;;
1000;SDS011;489;47.806;12.858;2022-07-29T02:49:23;4.00;;;3.70;;
1000;SDS011;489;47.806;12.858;2022-07-29T02:51:36;3.40;;;3.20;;
1000;SDS011;489;47.806;12.858;2022-07-29T02:53:43;3.70;;;3.40;;
1000;SDS011;489;47.806;12.858;2022-07-29T02:55:46;3.10;;;2.90;;
1000;SDS011;489;47.806;12.858;2022-07-29T02:57:51;4.37;;;3.93;;
1000;SDS011;489;47.806;12.858;2022-07-29T02:59:59;4.57;;;4.27;;
1000;SDS011;489;47.806;12.858;2022-07-29T03:02:05;5.20;;;4.80;;
1000;SDS011;489;47.806;12.858;2022-07-29T03:04:08;5.03;;;4.53;;
1000;SDS011;489;47.806;12.858;2022-07-29T03:06:12;4.13;;;3.77;;
1000;SDS011;489;47.806;12.858;2022-07-29T03:08:16;4.50;;;4.20;;
1000;SDS011;489;47.806;12.858;2022-07-29T03:10:18;4.53;;;4.13;;
1000;SDS011;489;47.806;12.858;2022-07-29T03:12:20;4.47;;;4.10;;
1000;SDS011;489;47.806;12.858;2022-07-29T03:14:23;4.90;;;4.50;;
1000;SDS011;489;47.806;12.858;2022-07-29T03:16:24;4.97;;;4.50;;
1000;SDS011;489;47.806;12.858;2022-07-29T03:18:27;5.23;;;4.73;;
1000;SDS011;489;47.806;12.858;2022-07-29T03:20:29;4.83;;;4.43;;
1000;SDS011;489;47.806;12.858;2022-07-29T03:22:30;8.40;;;7.60;;
1000;SDS011;489;47.806;12.858;2022-07-29T03:24:34;8.83;;;8.03;;
1000;SDS011;489;47.806;12.858;2022-07-29T03:26:37;5.50;;;5.00;;
1000;SDS011;489;47.806;12.858;2022-07-29T03:28:39;5.40;;;4.90;;
1000;SDS011;489;47.806;12.858;2022-07-29T03:30:41;6.00;;;5.50;;
1000;SDS011;489;47.806;12.858;2022-07-29T03:32:43;4.90;;;4.13;;
1000;SDS011;489;47.806;12.858;2022-07-29T03:34:44;4.77;;;4.37;;
1000;SDS011;489;47.806;12.858;2022-07-29T03:36:46;5.03;;;4.63;;
1000;SDS011;489;47.806;12.858;2022-07-29T03:38:48;4.67;;;4.37;;
1000;SDS011;489;47.806;12.858;2022-07-29T03:40:53;5.00;;;4.50;;
1000;SDS011;489;47.806;12.858;2022-07-29T03:42:57;4.20;;;3.90;;
1000;SDS011;489;47.806;12.858;2022-07-29T03:45:01;4.73;;;4.37;;
1000;SDS011;489;47.806;12.858;2022-07-29T03:47:05;5.10;;;4.60;;
1000;SDS011;489;47.806;12.858;2022-07-29T03:49:08;5.13;;;4.73;;
1000;SDS011;489;47.806;12.858;2022-07-29T03:51:11;5.43;;;5.03;;
1000;SDS011;489;47.806;12.858;2022-07-29T03:53:13;4.43;;;4.03;;
1000;SDS011;489;47.806;12.858;2022-07-29T03:55:15;5.27;;;4.87;;
1000;SDS011;489;47.806;12.858;2022-07-29T03:57:18;4.80;;;4.47;;
1000;SDS011;489;47.806;12.858;2022-07-29T03:59:22;4.37;;;3.97;;
1000;SDS011;489;47.806;12.858;2022-07-29T04:01:24;5.27;;;4.77;;
1000;SDS011;489;47.806;12.858;2022-07-29T04:03:26;4.20;;;3.90;;
1000;SDS011;489;47.806;12.858;2022-07-29T04:05:28;3.70;;;3.40;;
1000;SDS011;489;47.806;12.858;2022-07-29T04:07:29;4.17;;;3.77;;
1000;SDS011;489;47.806;12.858;2022-07-29T04:09:31;4.13;;;3.83;;
1000;SDS011;489;47.806;12.858;2022-07-29T04:11:33;4.23;;;3.93;;
1000;SDS011;489;47.806;12.858;2022-07-29T04:13:37;3.70;;;3.40;;
1000;SDS011;489;47.806;12.858;2022-07-29T04:15:39;3.80;;;3.47;;
1000;SDS011;489;47.806;12.858;2022-07-29T04:17:40;3.40;;;3.10;;
1000;SDS011;489;47.806;12.858;2022-07-29T04:19:43;3.40;;;3.20;;
1000;SDS011;489;47.806;12.858;2022-07-29T04:21:45;3.73;;;3.43;;
1000;SDS011;489;47.806;12.858;2022-07-29T04:23:47;3.40;;;3.10;;
1000;SDS011;489;47.806;12.858;2022-07-29T04:25:50;3.53;;;3.33;;
1000;SDS011;489;47.806;12.858;2022-07-29T04:27:51;3.17;;;2.97;;
1000;SDS011;489;47.806;12.858;2022-07-29T04:30:04;3.20;;;3.00;;
1000;SDS011;489;47.806;12.858;2022-07-29T04:32:07;3.07;;;2.87;;
1000;SDS011;489;47.806;12.858;2022-07-29T04:34:09;3.50;;;3.20;;
1000;SDS011;489;47.806;12.858;2022-07-29T04:36:12;3.97;;;3.57;;
1000;SDS011;489;47.806;12.858;2022-07-29T04:38:14;4.50;;;4.10;;
1000;SDS011;489;47.806;12.858;2022-07-29T04:40:16;3.87;;;3.57;;
1000;SDS011;489;47.806;12.858;2022-07-29T04:42:18;4.43;;;4.03;;
1000;SDS011;489;47.806;12.858;2022-07-29T04:44:20;5.33;;;5.00;;
1000;SDS011;489;47.806;12.858;2022-07-29T04:46:24;4.83;;;4.43;;
1000;SDS011;489;47.806;12.858;2022-07-29T04:48:26;4.30;;;4.00;;
1000;SDS011;489;47.806;12.858;2022-07-29T04:50:28;5.63;;;4.00;;
1000;SDS011;489;47.806;12.858;2022-07-29T04:52:29;4.37;;;4.00;;
1000;SDS011;489;47.806;12.858;2022-07-29T04:54:31;4.47;;;4.10;;
1000;SDS011;489;47.806;12.858;2022-07-29T04:56:33;4.40;;;4.10;;
1000;SDS011;489;47.806;12.858;2022-07-29T04:58:35;3.80;;;3.50;;
1000;SDS011;489;47.806;12.858;2022-07-29T05:00:37;4.10;;;3.80;;
1000;SDS011;489;47.806;12.858;2022-07-29T05:02:42;4.93;;;3.97;;
1000;SDS011;489;47.806;12.858;2022-07-29T05:04:44;4.47;;;4.10;;
1000;SDS011;489;47.806;12.858;2022-07-29T05:06:46;4.20;;;3.90;;
1000;SDS011;489;47.806;12.858;2022-07-29T05:08:48;4.10;;;3.90;;
1000;SDS011;489;47.806;12.858;2022-07-29T05:10:50;3.70;;;3.40;;
1000;SDS011;489;47.806;12.858;2022-07-29T05:12:52;4.07;;;3.77;;
1000;SDS011;489;47.806;12.858;2022-07-29T05:14:54;4.97;;;4.57;;
1000;SDS011;489;47.806;12.858;2022-07-29T05:16:56;4.90;;;4.40;;
1000;SDS011;489;47.806;12.858;2022-07-29T05:18:59;4.13;;;3.80;;
1000;SDS011;489;47.806;12.858;2022-07-29T05:21:01;4.40;;;4.00;;
1000;SDS011;489;47.806;12.858;2022-07-29T05:23:03;4.50;;;3.97;;
1000;SDS011;489;47.806;12.858;2022-07-29T05:25:05;4.50;;;4.20;;
1000;SDS011;489;47.806;12.858;2022-07-29T05:27:09;4.77;;;4.37;;
1000;SDS011;489;47.806;12.858;2022-07-29T05:29:10;4.73;;;4.37;;
1000;SDS011;489;47.806;12.858;2022-07-29T05:31:12;4.73;;;4.27;;
1000;SDS011;489;47.806;12.858;2022-07-29T05:33:14;4.80;;;4.30;;
1000;SDS011;489;47.806;12.858;2022-07-29T05:35:18;10.63;;;8.97;;
1000;SDS011;489;47.806;12.858;2022-07-29T05:37:20;13.00;;;11.77;;
1000;SDS011;489;47.806;12.858;2022-07-29T05:39:22;11.57;;;10.47;;
1000;SDS011;489;47.806;12.858;2022-07-29T05:41:24;11.43;;;10.33;;
1000;SDS011;489;47.806;12.858;2022-07-29T05:43:26;10.43;;;9.47;;
1000;SDS011;489;47.806;12.858;2022-07-29T05:45:28;7.10;;;6.50;;
1000;SDS011;489;47.806;12.858;2022-07-29T05:47:30;5.87;;;5.37;;
1000;SDS011;489;47.806;12.858;2022-07-29T05:49:31;6.80;;;6.20;;
1000;SDS011;489;47.806;12.858;2022-07-29T05:51:35;5.30;;;4.80;;
1000;SDS011;489;47.806;12.858;2022-07-29T05:53:37;4.83;;;4.43;;
1000;SDS011;489;47.806;12.858;2022-07-29T05:55:39;7.30;;;5.73;;
1000;SDS011;489;47.806;12.858;2022-07-29T05:57:41;5.37;;;4.97;;
1000;SDS011;489;47.806;12.858;2022-07-29T05:59:45;5.40;;;5.00;;
1000;SDS011;489;47.806;12.858;2022-07-29T06:01:48;6.60;;;4.50;;
1000;SDS011;489;47.806;12.858;2022-07-29T06:03:49;3.97;;;3.73;;
1000;SDS011;489;47.806;12.858;2022-07-29T06:05:51;4.60;;;4.20;;
1000;SDS011;489;47.806;12.858;2022-07-29T06:07:54;5.90;;;5.43;;
1000;SDS011;489;47.806;12.858;2022-07-29T06:09:56;5.93;;;5.43;;
1000;SDS011;489;47.806;12.858;2022-07-29T06:11:58;4.90;;;4.40;;
1000;SDS011;489;47.806;12.858;2022-07-29T06:14:00;5.03;;;4.63;;
1000;SDS011;489;47.806;12.858;2022-07-29T06:16:03;5.33;;;4.83;;
1000;SDS011;489;47.806;12.858;2022-07-29T06:18:05;4.83;;;4.43;;
1000;SDS011;489;47.806;12.858;2022-07-29T06:20:09;4.73;;;4.33;;
1000;SDS011;489;47.806;12.858;2022-07-29T06:22:11;4.37;;;4.07;;
1000;SDS011;489;47.806;12.858;2022-07-29T06:24:15;4.93;;;4.53;;
1000;SDS011;489;47.806;12.858;2022-07-29T06:26:17;5.00;;;3.87;;
1000;SDS011;489;47.806;12.858;2022-07-29T06:28:19;5.30;;;4.87;;
1000;SDS011;489;47.806;12.858;2022-07-29T06:30:20;4.30;;;4.00;;
1000;SDS011;489;47.806;12.858;2022-07-29T06:32:22;5.30;;;4.90;;
1000;SDS011;489;47.806;12.858;2022-07-29T06:34:24;4.70;;;4.30;;
1000;SDS011;489;47.806;12.858;2022-07-29T06:36:26;4.53;;;4.13;;
1000;SDS011;489;47.806;12.858;2022-07-29T06:38:28;3.90;;;3.60;;
1000;SDS011;489;47.806;12.858;2022-07-29T06:40:31;4.37;;;4.07;;
1000;SDS011;489;47.806;12.858;2022-07-29T06:42:50;4.30;;;4.00;;
1000;SDS011;489;47.806;12.858;2022-07-29T06:44:52;3.67;;;3.37;;
1000;SDS011;489;47.806;12.858;2022-07-29T06:46:54;4.67;;;3.60;;
1000;SDS011;489;47.806;12.858;2022-07-29T06:48:56;3.97;;;3.17;;
1000;SDS011;489;47.806;12.858;2022-07-29T06:50:57;3.80;;;3.50;;
1000;SDS011;489;47.806;12.858;2022-07-29T06:52:59;3.80;;;3.50;;
1000;SDS011;489;47.806;12.858;2022-07-29T06:55:01;3.60;;;3.30;;
1000;SDS011;489;47.806;12.858;2022-07-29T06:57:04;3.27;;;3.07;;
1000;SDS011;489;47.806;12.858;2022-07-29T06:59:06;3.10;;;2.90;;
1000;SDS011;489;47.806;12.858;2022-07-29T07:01:09;3.30;;;3.00;;
1000;SDS011;489;47.806;12.858;2022-07-29T07:03:11;3.53;;;3.23;;
1000;SDS011;489;47.806;12.858;2022-07-29T07:05:12;3.00;;;2.80;;
1000;SDS011;489;47.806;12.858;2022-07-29T07:07:14;3.20;;;3.00;;
1000;SDS011;489;47.806;12.858;2022-07-29T07:09:16;2.80;;;2.60;;
1000;SDS011;489;47.806;12.858;2022-07-29T07:11:18;2.97;;;2.77;;
1000;SDS011;489;47.806;12.858;2022-07-29T07:13:21;3.17;;;2.97;;
1000;SDS011;489;47.806;12.858;2022-07-29T07:15:22;3.33;;;3.07;;
1000;SDS011;489;47.806;12.858;2022-07-29T07:17:24;3.10;;;2.80;;
1000;SDS011;489;47.806;12.858;2022-07-29T07:19:26;3.13;;;2.90;;
1000;SDS011;489;47.806;12.858;2022-07-29T07:21:28;2.87;;;2.67;;
1000;SDS011;489;47.806;12.858;2022-07-29T07:23:30;2.97;;;2.77;;
1000;SDS011;489;47.806;12.858;2022-07-29T07:25:31;2.90;;;2.70;;
1000;SDS011;489;47.806;12.858;2022-07-29T07:27:33;2.63;;;2.43;;
1000;SDS011;489;47.806;12.858;2022-07-29T07:29:36;3.23;;;3.03;;
1000;SDS011;489;47.806;12.858;2022-07-29T07:31:41;3.00;;;2.80;;
1000;SDS011;489;47.806;12.858;2022-07-29T07:33:42;2.67;;;2.47;;
1000;SDS011;489;47.806;12.858;2022-07-29T07:35:44;2.60;;;2.40;;
1000;SDS011;489;47.806;12.858;2022-07-29T07:37:46;3.17;;;2.80;;
1000;SDS011;489;47.806;12.858;2022-07-29T07:39:48;2.43;;;2.33;;
1000;SDS011;489;47.806;12.858;2022-07-29T07:41:49;2.67;;;2.50;;
1000;SDS011;489;47.806;12.858;2022-07-29T07:43:51;3.20;;;3.00;;
1000;SDS011;489;47.806;12.858;2022-07-29T07:45:54;3.03;;;2.83;;
1000;SDS011;489;47.806;12.858;2022-07-29T07:47:56;2.73;;;2.53;;
1000;SDS011;489;47.806;12.858;2022-07-29T07:49:58;2.70;;;2.47;;
1000;SDS011;489;47.806;12.858;2022-07-29T07:52:00;3.10;;;2.90;;
1000;SDS011;489;47.806;12.858;2022-07-29T07:54:02;3.50;;;3.03;;
1000;SDS011;489;47.806;12.858;2022-07-29T07:56:04;3.10;;;2.90;;
1000;SDS011;489;47.806;12.858;2022-07-29T07:58:06;2.90;;;2.70;;
1000;SDS011;489;47.806;12.858;2022-07-29T08:00:08;3.00;;;2.80;;
1000;SDS011;489;47.806;12.858;2022-07-29T08:02:12;2.67;;;2.57;;
1000;SDS011;489;47.806;12.858;2022-07-29T08:04:13;2.90;;;2.70;;
1000;SDS011;489;47.806;12.858;2022-07-29T08:06:15;2.83;;;2.63;;
1000;SDS011;489;47.806;12.858;2022-07-29T08:08:17;3.50;;;3.20;;
1000;SDS011;489;47.806;12.858;2022-07-29T08:10:19;3.33;;;3.00;;
1000;SDS011;489;47.806;12.858;2022-07-29T08:12:35;2.73;;;2.53;;
1000;SDS011;489;47.806;12.858;2022-07-29T08:14:36;2.90;;;2.70;;
1000;SDS011;489;47.806;12.858;2022-07-29T08:16:38;3.30;;;3.00;;
1000;SDS011;489;47.806;12.858;2022-07-29T08:18:42;2.93;;;2.73;;
1000;SDS011;489;47.806;12.858;2022-07-29T08:20:44;3.00;;;2.80;;
1000;SDS011;489;47.806;12.858;2022-07-29T08:22:46;2.70;;;2.50;;
1000;SDS011;489;47.806;12.858;2022-07-29T08:24:48;3.17;;;2.87;;
1000;SDS011;489;47.806;12.858;2022-07-29T08:26:54;3.13;;;2.90;;
1000;SDS011;489;47.806;12.858;2022-07-29T08:28:55;2.93;;;2.73;;
1000;SDS011;489;47.806;12.858;2022-07-29T08:30:57;2.50;;;2.30;;
1000;SDS011;489;47.806;12.858;2022-07-29T08:32:59;3.00;;;2.70;;
1000;SDS011;489;47.806;12.858;2022-07-29T08:35:02;2.90;;;2.70;;
1000;SDS011;489;47.806;12.858;2022-07-29T08:37:04;3.33;;;3.03;;
1000;SDS011;489;47.806;12.858;2022-07-29T08:39:06;3.10;;;2.60;;
1000;SDS011;489;47.806;12.858;2022-07-29T08:41:08;3.10;;;2.90;;
1000;SDS011;489;47.806;12.858;2022-07-29T08:43:10;2.10;;;2.00;;
1000;SDS011;489;47.806;12.858;2022-07-29T08:45:12;3.00;;;2.80;;
1000;SDS011;489;47.806;12.858;2022-07-29T08:47:15;2.90;;;2.70;;
1000;SDS011;489;47.806;12.858;2022-07-29T08:49:17;2.77;;;2.57;;
1000;SDS011;489;47.806;12.858;2022-07-29T08:51:20;2.90;;;2.60;;
1000;SDS011;489;47.806;12.858;2022-07-29T08:53:23;2.83;;;2.63;;
1000;SDS011;489;47.806;12.858;2022-07-29T08:55:27;2.60;;;2.40;;
1000;SDS011;489;47.806;12.858;2022-07-29T08:57:29;2.97;;;2.67;;
1000;SDS011;489;47.806;12.858;2022-07-29T08:59:31;2.37;;;2.17;;
1000;SDS011;489;47.806;12.858;2022-07-29T09:01:34;2.20;;;2.10;;
1000;SDS011;489;47.806;12.858;2022-07-29T09:03:39;2.83;;;2.63;;
1000;SDS011;489;47.806;12.858;2022-07-29T09:05:41;2.87;;;2.67;;
1000;SDS011;489;47.806;12.858;2022-07-29T09:07:45;3.00;;;2.80;;
1000;SDS011;489;47.806;12.858;2022-07-29T09:09:48;2.63;;;2.43;;
1000;SDS011;489;47.806;12.858;2022-07-29T09:11:49;2.80;;;2.57;;
1000;SDS011;489;47.806;12.858;2022-07-29T09:13:53;2.83;;;2.63;;
1000;SDS011;489;47.806;12.858;2022-07-29T09:15:54;2.57;;;2.40;;
1000;SDS011;489;47.806;12.858;2022-07-29T09:17:56;3.37;;;3.10;;
1000;SDS011;489;47.806;12.858;2022-07-29T09:20:00;3.47;;;3.17;;
1000;SDS011;489;47.806;12.858;2022-07-29T09:22:10;2.57;;;2.43;;
1000;SDS011;489;47.806;12.858;2022-07-29T09:24:13;2.67;;;2.47;;
1000;SDS011;489;47.806;12.858;2022-07-29T09:26:15;2.63;;;2.43;;
1000;SDS011;489;47.806;12.858;2022-07-29T09:28:17;2.97;;;2.77;;
1000;SDS011;489;47.806;12.858;2022-07-29T09:30:19;2.33;;;2.23;;
1000;SDS011;489;47.806;12.858;2022-07-29T09:32:22;3.10;;;2.90;;
1000;SDS011;489;47.806;12.858;2022-07-29T09:34:24;2.87;;;2.57;;
1000;SDS011;489;47.806;12.858;2022-07-29T09:36:28;2.73;;;2.53;;
1000;SDS011;489;47.806;12.858;2022-07-29T09:38:30;2.83;;;2.63;;
1000;SDS011;489;47.806;12.858;2022-07-29T09:40:33;2.57;;;2.43;;
1000;SDS011;489;47.806;12.858;2022-07-29T09:42:35;2.17;;;2.07;;
1000;SDS011;489;47.806;12.858;2022-07-29T09:44:41;2.73;;;2.53;;
1000;SDS011;489;47.806;12.858;2022-07-29T09:46:56;2.80;;;2.60;;
1000;SDS011;489;47.806;12.858;2022-07-29T09:49:05;2.90;;;2.70;;
1000;SDS011;489;47.806;12.858;2022-07-29T09:51:16;2.97;;;2.73;;
1000;SDS011;489;47.806;12.858;2022-07-29T09:53:31;2.30;;;2.10;;
1000;SDS011;489;47.806;12.858;2022-07-29T09:55:40;2.17;;;2.07;;
1000;SDS011;489;47.806;12.858;2022-07-29T09:57:47;2.83;;;2.60;;
1000;SDS011;489;47.806;12.858;2022-07-29T09:59:55;2.40;;;2.20;;
1000;SDS011;489;47.806;12.858;2022-07-29T10:01:57;2.93;;;2.73;;
1000;SDS011;489;47.806;12.858;2022-07-29T10:03:59;2.50;;;2.40;;
1000;SDS011;489;47.806;12.858;2022-07-29T10:06:05;2.57;;;2.30;;
1000;SDS011;489;47.806;12.858;2022-07-29T10:08:08;2.83;;;2.40;;
1000;SDS011;489;47.806;12.858;2022-07-29T10:10:18;2.43;;;2.30;;
1000;SDS011;489;47.806;12.858;2022-07-29T10:12:22;2.17;;;2.03;;
1000;SDS011;489;47.806;12.858;2022-07-29T10:14:24;2.40;;;2.30;;
1000;SDS011;489;47.806;12.858;2022-07-29T10:16:26;2.20;;;2.00;;
1000;SDS011;489;47.806;12.858;2022-07-29T10:18:32;2.37;;;2.20;;
1000;SDS011;489;47.806;12.858;2022-07-29T10:20:34;2.53;;;2.33;;
1000;SDS011;489;47.806;12.858;2022-07-29T10:22:36;2.73;;;2.53;;
1000;SDS011;489;47.806;12.858;2022-07-29T10:24:38;2.63;;;2.50;;
1000;SDS011;489;47.806;12.858;2022-07-29T10:26:40;2.57;;;2.37;;
1000;SDS011;489;47.806;12.858;2022-07-29T10:28:44;2.63;;;2.43;;
1000;SDS011;489;47.806;12.858;2022-07-29T10:30:46;2.17;;;2.07;;
1000;SDS011;489;47.806;12.858;2022-07-29T10:32:59;2.23;;;2.13;;
1000;SDS011;489;47.806;12.858;2022-07-29T10:35:21;2.40;;;2.30;;
1000;SDS011;489;47.806;12.858;2022-07-29T10:37:33;3.00;;;2.27;;
1000;SDS011;489;47.806;12.858;2022-07-29T10:39:43;2.27;;;2.13;;
1000;SDS011;489;47.806;12.858;2022-07-29T10:42:04;2.50;;;2.40;;
1000;SDS011;489;47.806;12.858;2022-07-29T10:44:14;3.20;;;2.67;;
1000;SDS011;489;47.806;12.858;2022-07-29T10:46:18;2.60;;;2.40;;
1000;SDS011;489;47.806;12.858;2022-07-29T10:48:20;2.20;;;2.10;;
1000;SDS011;489;47.806;12.858;2022-07-29T10:50:22;2.00;;;1.90;;
1000;SDS011;489;47.806;12.858;2022-07-29T10:52:24;2.37;;;2.17;;
1000;SDS011;489;47.806;12.858;2022-07-29T10:54:44;2.30;;;2.20;;
1000;SDS011;489;47.806;12.858;2022-07-29T10:56:50;2.30;;;2.20;;
1000;SDS011;489;47.806;12.858;2022-07-29T11:01:28;2.40;;;2.30;;
1000;SDS011;489;47.806;12.858;2022-07-29T11:03:43;2.30;;;2.20;;
1000;SDS011;489;47.806;12.858;2022-07-29T11:05:53;2.33;;;2.13;;
1000;SDS011;489;47.806;12.858;2022-07-29T11:10:22;2.53;;;2.40;;
1000;SDS011;489;47.806;12.858;2022-07-29T11:14:58;3.47;;;3.27;;
1000;SDS011;489;47.806;12.858;2022-07-29T11:17:03;2.60;;;2.40;;
1000;SDS011;489;47.806;12.858;2022-07-29T11:19:21;2.80;;;2.30;;
1000;SDS011;489;47.806;12.858;2022-07-29T11:21:34;2.33;;;2.23;;
1000;SDS011;489;47.806;12.858;2022-07-29T11:23:36;2.50;;;2.30;;
1000;SDS011;489;47.806;12.858;2022-07-29T11:25:39;2.10;;;2.00;;
1000;SDS011;489;47.806;12.858;2022-07-29T11:27:41;2.70;;;2.50;;
1000;SDS011;489;47.806;12.858;2022-07-29T11:29:50;2.40;;;2.30;;
1000;SDS011;489;47.806;12.858;2022-07-29T11:31:57;2.53;;;2.33;;
1000;SDS011;489;47.806;12.858;2022-07-29T11:34:16;2.27;;;2.17;;
1000;SDS011;489;47.806;12.858;2022-07-29T11:36:19;2.90;;;2.70;;
1000;SDS011;489;47.806;12.858;2022-07-29T11:38:24;2.60;;;2.40;;
1000;SDS011;489;47.806;12.858;2022-07-29T11:40:27;2.60;;;2.43;;
1000;SDS011;489;47.806;12.858;2022-07-29T11:42:47;2.40;;;2.20;;
1000;SDS011;489;47.806;12.858;2022-07-29T11:44:56;2.90;;;2.70;;
1000;SDS011;489;47.806;12.858;2022-07-29T11:46:59;2.80;;;2.60;;
1000;SDS011;489;47.806;12.858;2022-07-29T11:49:02;2.80;;;2.60;;
1000;SDS011;489;47.806;12.858;2022-07-29T11:51:04;2.63;;;2.30;;
1000;SDS011;489;47.806;12.858;2022-07-29T11:53:11;2.70;;;2.50;;
1000;SDS011;489;47.806;12.858;2022-07-29T11:55:15;2.20;;;2.10;;
1000;SDS011;489;47.806;12.858;2022-07-29T11:57:18;2.97;;;2.70;;
1000;SDS011;489;47.806;12.858;2022-07-29T11:59:20;2.50;;;2.40;;
1000;SDS011;489;47.806;12.858;2022-07-29T12:01:22;2.70;;;2.60;;
1000;SDS011;489;47.806;12.858;2022-07-29T12:03:26;2.67;;;2.47;;
1000;SDS011;489;47.806;12.858;2022-07-29T12:05:33;3.00;;;2.70;;
1000;SDS011;489;47.806;12.858;2022-07-29T12:07:39;5.70;;;2.33;;
1000;SDS011;489;47.806;12.858;2022-07-29T12:09:47;2.33;;;2.13;;
1000;SDS011;489;47.806;12.858;2022-07-29T12:11:55;2.40;;;2.30;;
1000;SDS011;489;47.806;12.858;2022-07-29T12:13:57;2.87;;;2.67;;
1000;SDS011;489;47.806;12.858;2022-07-29T12:15:59;2.30;;;2.10;;
1000;SDS011;489;47.806;12.858;2022-07-29T12:18:11;2.70;;;2.57;;
1000;SDS011;489;47.806;12.858;2022-07-29T12:20:22;2.90;;;2.70;;
1000;SDS011;489;47.806;12.858;2022-07-29T12:22:25;2.70;;;2.50;;
1000;SDS011;489;47.806;12.858;2022-07-29T12:24:28;3.80;;;3.00;;
1000;SDS011;489;47.806;12.858;2022-07-29T12:26:50;2.60;;;2.40;;
1000;SDS011;489;47.806;12.858;2022-07-29T12:28:52;3.40;;;3.20;;
1000;SDS011;489;47.806;12.858;2022-07-29T12:30:54;2.50;;;2.40;;
1000;SDS011;489;47.806;12.858;2022-07-29T12:32:56;2.80;;;2.60;;
1000;SDS011;489;47.806;12.858;2022-07-29T12:34:58;2.60;;;2.40;;
1000;SDS011;489;47.806;12.858;2022-07-29T12:37:02;2.47;;;2.37;;
1000;SDS011;489;47.806;12.858;2022-07-29T12:39:04;2.90;;;2.70;;
1000;SDS011;489;47.806;12.858;2022-07-29T12:41:06;3.03;;;2.83;;
1000;SDS011;489;47.806;12.858;2022-07-29T12:43:10;2.90;;;2.70;;
1000;SDS011;489;47.806;12.858;2022-07-29T12:45:13;2.50;;;2.40;;
1000;SDS011;489;47.806;12.858;2022-07-29T12:47:16;2.80;;;2.60;;
1000;SDS011;489;47.806;12.858;2022-07-29T12:49:21;3.10;;;2.80;;
1000;SDS011;489;47.806;12.858;2022-07-29T12:51:28;3.07;;;2.77;;
1000;SDS011;489;47.806;12.858;2022-07-29T12:53:32;2.97;;;2.77;;
1000;SDS011;489;47.806;12.858;2022-07-29T12:55:44;3.07;;;2.87;;
1000;SDS011;489;47.806;12.858;2022-07-29T12:57:49;2.70;;;2.50;;
1000;SDS011;489;47.806;12.858;2022-07-29T13:00:03;2.65;;;2.55;;
1000;SDS011;489;47.806;12.858;2022-07-29T13:02:19;2.83;;;2.67;;